Time,TemperatureF,DewpointF,PressureIn,WindDirection,WindDirectionDegrees,WindSpeedMPH,WindSpeedGustMPH,Humidity,HourlyPrecipIn,Conditions,Clouds,dailyrainin,SoftwareType,DateUTC
2013-03-31 00:00:00,46.8,18.5,29.98,SW,230,0.0,0.0,32,0.00,,SKC,0.00,VWS V12.07,2013-03-31 06:00:00,
2013-03-31 00:30:00,46.0,18.5,29.96,SW,230,0.0,0.0,33,0.00,,SKC,0.00,VWS V12.07,2013-03-31 06:30:00,
2013-03-31 01:01:00,45.5,19.5,29.96,SW,230,0.0,0.0,35,0.00,,SKC,0.00,VWS V12.07,2013-03-31 07:01:00,
2013-03-31 01:30:00,46.1,19.3,29.94,SW,230,0.0,0.0,34,0.00,,SKC,0.00,VWS V12.07,2013-03-31 07:30:00,
2013-03-31 02:00:00,45.8,16.9,29.94,SW,230,0.0,0.0,31,0.00,,SKC,0.00,VWS V12.07,2013-03-31 08:00:00,
2013-03-31 02:30:00,45.7,16.8,29.94,SW,230,0.0,0.0,31,0.00,,SKC,0.00,VWS V12.07,2013-03-31 08:30:00,
2013-03-31 03:01:00,45.7,16.1,29.94,SW,230,0.0,0.0,30,0.00,,SKC,0.00,VWS V12.07,2013-03-31 09:01:00,
2013-03-31 03:30:00,45.8,16.9,29.92,SW,230,0.0,0.0,31,0.00,,SKC,0.00,VWS V12.07,2013-03-31 09:30:00,
2013-03-31 04:01:00,44.6,17.3,29.92,SW,230,0.0,0.0,33,0.00,,SKC,0.00,VWS V12.07,2013-03-31 10:01:00,
2013-03-31 04:30:00,45.1,15.5,29.91,SW,230,0.0,0.0,30,0.00,,SKC,0.00,VWS V12.07,2013-03-31 10:30:00,
2013-03-31 05:01:00,44.1,16.9,29.92,SW,230,0.0,0.0,33,0.00,,SKC,0.00,VWS V12.07,2013-03-31 11:01:00,
2013-03-31 05:30:00,44.2,16.9,29.92,SW,230,0.0,0.0,33,0.00,,SKC,0.00,VWS V12.07,2013-03-31 11:30:00,
2013-03-31 06:01:00,43.2,17.4,29.93,SW,230,0.0,0.0,35,0.00,,SKC,0.00,VWS V12.07,2013-03-31 12:01:00,
2013-03-31 06:30:00,43.8,18.0,29.95,SW,230,0.0,0.0,35,0.00,,SKC,0.00,VWS V12.07,2013-03-31 12:30:00,
2013-03-31 07:30:00,40.5,18.1,30.01,SW,230,0.0,0.0,40,0.00,,SKC,0.00,VWS V12.07,2013-03-31 13:30:00,
2013-03-31 08:01:00,43.1,17.3,30.00,SW,230,0.0,0.0,35,0.00,,SKC,0.00,VWS V12.07,2013-03-31 14:01:00,
2013-03-31 08:30:00,43.6,17.8,30.01,SW,230,0.0,0.0,35,0.00,,SKC,0.00,VWS V12.07,2013-03-31 14:30:00,
2013-03-31 09:00:00,46.7,18.4,29.99,SW,230,0.0,0.0,32,0.00,,SKC,0.00,VWS V12.07,2013-03-31 15:00:00,
2013-03-31 09:30:00,47.9,20.2,29.98,SSW,207,0.0,1.0,33,0.00,,SKC,0.00,VWS V12.07,2013-03-31 15:30:00,
2013-03-31 10:01:00,50.2,20.8,29.97,SSE,162,0.0,2.0,31,0.00,,SKC,0.00,VWS V12.07,2013-03-31 16:01:00,
2013-03-31 10:30:00,51.1,21.5,29.96,SE,138,0.0,4.0,31,0.00,,SKC,0.00,VWS V12.07,2013-03-31 16:30:00,
2013-03-31 11:01:00,53.1,23.3,29.95,ENE,67,1.0,6.0,31,0.00,,SKC,0.00,VWS V12.07,2013-03-31 17:01:00,
2013-03-31 11:30:00,54.1,21.7,29.95,ENE,71,0.0,5.0,28,0.00,,SKC,0.00,VWS V12.07,2013-03-31 17:30:00,
2013-03-31 12:30:00,57.3,22.7,29.93,East,94,1.0,5.0,26,0.00,,SKC,0.00,VWS V12.07,2013-03-31 18:30:00,
2013-03-31 17:30:00,64.2,18.5,29.76,East,100,2.0,9.0,17,0.00,,SKC,0.00,VWS V12.07,2013-03-31 23:30:00,
2013-03-31 18:01:00,62.9,20.0,29.76,ENE,75,0.0,10.0,19,0.00,,SKC,0.00,VWS V12.07,2013-04-01 00:01:00,
2013-03-31 18:30:00,63.1,20.2,29.77,ENE,71,0.0,2.0,19,0.00,,SKC,0.00,VWS V12.07,2013-04-01 00:30:00,
2013-03-31 19:01:00,61.6,21.3,29.77,East,88,0.0,3.0,21,0.00,,SKC,0.00,VWS V12.07,2013-04-01 01:01:00,
2013-03-31 19:30:00,59.2,22.5,29.78,East,88,0.0,0.0,24,0.00,,SKC,0.00,VWS V12.07,2013-04-01 01:30:00,
2013-03-31 20:01:00,56.5,22.0,29.79,East,88,0.0,0.0,26,0.00,,SKC,0.00,VWS V12.07,2013-04-01 02:01:00,
2013-03-31 20:30:00,55.7,22.3,29.76,WSW,258,0.0,0.0,27,0.00,,SKC,0.00,VWS V12.07,2013-04-01 02:30:00,
2013-03-31 21:00:00,56.0,23.4,29.77,WSW,244,0.0,0.0,28,0.00,,SKC,0.00,VWS V12.07,2013-04-01 03:00:00,
2013-03-31 21:30:00,56.2,23.5,29.76,NNW,327,0.0,1.0,28,0.00,,SKC,0.00,VWS V12.07,2013-04-01 03:30:00,
2013-03-31 22:00:00,55.7,27.1,29.77,West,269,0.0,11.0,33,0.00,,SKC,0.00,VWS V12.07,2013-04-01 04:00:00,
2013-03-31 22:30:00,53.9,28.2,29.78,SSE,154,0.0,5.0,37,0.00,,SKC,0.00,VWS V12.07,2013-04-01 04:30:00,
2013-03-31 23:01:00,52.2,29.8,29.81,SE,134,0.0,6.0,42,0.00,,SKC,0.00,VWS V12.07,2013-04-01 05:01:00,
2013-03-31 23:30:00,51.4,30.2,29.77,SE,134,0.0,0.0,44,0.00,,SKC,0.00,VWS V12.07,2013-04-01 05:30:00,